Time;durP1;ratioP1;P1;durP2;ratioP2;P2;SDS_P1;SDS_P2;PMS_P1;PMS_P2;Temp;Humidity;BMP_temperature;BMP_pressure;BME280_temperature;BME280_humidity;BME280_pressure;Samples;Min_cycle;Max_cycle;Signal;HPM_P1;HPM_P2
2022/01/13 00:02:02;;;;;;;3.58;2.85;;;22.60;42.40;;;;;;5044709;28;44456;-62
2022/01/13 00:04:30;;;;;;;4.72;2.95;;;22.60;42.40;;;;;;5045281;28;43549;-62
2022/01/13 00:06:58;;;;;;;4.70;3.00;;;22.60;42.40;;;;;;5044890;28;43528;-62
2022/01/13 00:09:25;;;;;;;3.67;2.65;;;22.60;42.40;;;;;;5045117;28;43582;-62
2022/01/13 00:11:53;;;;;;;5.00;2.83;;;22.60;42.50;;;;;;5044695;28;44025;-62
2022/01/13 00:14:25;;;;;;;3.40;2.88;;;22.60;42.40;;;;;;5044878;28;43683;-62
2022/01/13 00:22:17;;;;;;;3.55;2.88;;;22.50;42.50;;;;;;5044841;28;43835;-62
2022/01/13 00:24:49;;;;;;;3.40;2.75;;;22.50;42.50;;;;;;5044129;28;43492;-62
2022/01/13 00:27:17;;;;;;;3.20;2.83;;;22.50;42.50;;;;;;5044804;28;43492;-62
2022/01/13 00:29:46;;;;;;;4.03;2.70;;;22.50;42.50;;;;;;5044276;28;43464;-62
2022/01/13 00:32:15;;;;;;;4.22;2.70;;;22.50;42.60;;;;;;5043920;28;43978;-62
2022/01/13 00:34:43;;;;;;;3.65;2.80;;;22.50;42.50;;;;;;5044417;28;43481;-63
2022/01/13 00:37:11;;;;;;;2.85;2.55;;;22.50;42.50;;;;;;5044596;28;43426;-63
2022/01/13 00:39:39;;;;;;;3.45;3.00;;;22.50;42.50;;;;;;5044892;28;43470;-62
2022/01/13 00:42:06;;;;;;;3.30;2.50;;;22.50;42.50;;;;;;5044410;28;44078;-62
2022/01/13 00:44:37;;;;;;;3.35;2.53;;;22.40;42.50;;;;;;5044020;28;43440;-62
2022/01/13 00:47:08;;;;;;;3.45;2.55;;;22.40;42.50;;;;;;5043760;28;43395;-62
2022/01/13 00:49:36;;;;;;;2.95;2.60;;;22.40;42.50;;;;;;5044869;28;43550;-62
2022/01/13 00:52:05;;;;;;;3.70;2.90;;;22.40;42.50;;;;;;5043386;28;44288;-63
2022/01/13 00:54:34;;;;;;;3.40;3.08;;;22.40;42.50;;;;;;5044175;28;44088;-62
2022/01/13 00:57:02;;;;;;;3.42;2.90;;;22.40;42.60;;;;;;5044477;28;43400;-62
2022/01/13 00:59:29;;;;;;;3.15;2.83;;;22.30;42.50;;;;;;5044700;28;43447;-63
2022/01/13 01:01:57;;;;;;;3.13;2.78;;;22.40;42.50;;;;;;5044087;28;43738;-63
2022/01/13 01:04:25;;;;;;;3.08;2.70;;;22.30;42.50;;;;;;5033802;28;43520;-63
2022/01/13 01:06:52;;;;;;;4.03;2.83;;;22.30;42.50;;;;;;5042422;28;43410;-63
2022/01/13 01:09:38;;;;;;;3.25;2.85;;;22.30;42.50;;;;;;5040451;28;43590;-62
2022/01/13 01:12:07;;;;;;;3.00;2.65;;;22.30;42.50;;;;;;5058744;28;43725;-62
2022/01/13 01:14:40;;;;;;;3.17;2.63;;;22.30;42.50;;;;;;5043749;28;43970;-62
2022/01/13 01:17:07;;;;;;;2.75;2.55;;;22.30;42.50;;;;;;5044179;28;43492;-62
2022/01/13 01:19:37;;;;;;;3.30;3.00;;;22.30;42.50;;;;;;5044012;28;43514;-62
2022/01/13 01:24:56;;;;;;;2.80;2.60;;;22.30;42.50;;;;;;5044036;28;43604;-63
2022/01/13 01:27:22;;;;;;;2.83;2.63;;;22.20;42.50;;;;;;5043915;28;43465;-62
2022/01/13 01:30:22;;;;;;;2.83;2.63;;;22.30;42.60;;;;;;5044313;28;43424;-63
2022/01/13 01:32:38;;;;;;;3.20;2.88;;;22.20;42.50;;;;;;5042991;28;43789;-62
2022/01/13 01:35:13;;;;;;;3.20;2.90;;;22.20;42.50;;;;;;5043693;28;43637;-62
2022/01/13 01:37:42;;;;;;;2.70;2.50;;;22.20;42.50;;;;;;5042468;28;43543;-62
2022/01/13 01:40:13;;;;;;;3.33;3.03;;;22.20;42.60;;;;;;5044132;28;43678;-62
2022/01/13 01:42:41;;;;;;;2.78;2.58;;;22.20;42.60;;;;;;5043714;28;44701;-62
2022/01/13 01:45:10;;;;;;;3.22;2.92;;;22.10;42.50;;;;;;5041994;28;43498;-62
2022/01/13 01:47:37;;;;;;;2.97;2.78;;;22.10;42.50;;;;;;5043949;28;43451;-62
2022/01/13 01:50:17;;;;;;;2.80;2.60;;;22.10;42.60;;;;;;5043781;28;44024;-63
2022/01/13 01:52:48;;;;;;;2.78;2.50;;;22.10;42.60;;;;;;5043691;28;44703;-62
2022/01/13 01:55:17;;;;;;;2.83;2.63;;;22.10;42.60;;;;;;5042677;28;43652;-63
2022/01/13 01:57:49;;;;;;;2.80;2.60;;;22.10;42.60;;;;;;5059173;28;43463;-62
2022/01/13 02:00:18;;;;;;;;;;;22.10;42.60;;;;;;5058224;28;43486;-63
2022/01/13 02:02:49;;;;;;;2.70;2.50;;;22.10;42.60;;;;;;5043369;28;45063;-62
2022/01/13 02:05:17;;;;;;;2.88;2.67;;;22.00;42.60;;;;;;5042888;28;43959;-62
2022/01/13 02:07:45;;;;;;;2.78;2.58;;;22.00;42.60;;;;;;5075372;28;43475;-63
2022/01/13 02:10:14;;;;;;;2.60;2.35;;;22.00;42.60;;;;;;5043239;28;43554;-62
2022/01/13 02:12:47;;;;;;;2.88;2.67;;;22.00;42.60;;;;;;5043205;28;44038;-62
2022/01/13 02:15:31;;;;;;;2.90;2.70;;;22.00;42.60;;;;;;5041188;28;43502;-62
2022/01/13 02:18:02;;;;;;;2.83;2.55;;;22.00;42.60;;;;;;5039806;28;43594;-62
2022/01/13 02:20:50;;;;;;;2.80;2.60;;;22.00;42.60;;;;;;5039759;28;43474;-62
2022/01/13 02:23:47;;;;;;;2.78;2.58;;;22.00;42.70;;;;;;5040859;28;43789;-62
2022/01/13 02:26:14;;;;;;;2.40;2.20;;;22.00;42.70;;;;;;5034276;28;43527;-62
2022/01/13 02:28:44;;;;;;;2.80;2.60;;;21.90;42.70;;;;;;5043613;28;43401;-62
2022/01/13 02:31:12;;;;;;;2.80;2.60;;;21.90;42.70;;;;;;5041940;28;43512;-62
2022/01/13 02:33:40;;;;;;;3.03;2.83;;;21.90;42.60;;;;;;5043628;28;43806;-62
2022/01/13 02:36:08;;;;;;;2.78;2.58;;;21.90;42.60;;;;;;5042480;28;43450;-62
2022/01/13 02:38:36;;;;;;;2.75;2.50;;;21.90;42.60;;;;;;5041785;28;43584;-62
2022/01/13 02:41:04;;;;;;;2.90;2.70;;;21.90;42.70;;;;;;5042981;28;43541;-62
2022/01/13 02:43:33;;;;;;;2.97;2.78;;;21.90;42.70;;;;;;5043098;28;44718;-63
2022/01/13 02:46:18;;;;;;;3.28;2.60;;;21.80;42.70;;;;;;5042233;28;43500;-62
2022/01/13 02:48:48;;;;;;;2.85;2.65;;;21.80;42.70;;;;;;5043336;28;43407;-62
2022/01/13 02:51:15;;;;;;;2.90;2.70;;;21.80;42.70;;;;;;5041669;28;43683;-62
2022/01/13 02:53:43;;;;;;;2.30;2.20;;;21.80;42.70;;;;;;5043002;28;44678;-62
2022/01/13 02:56:10;;;;;;;2.67;2.47;;;21.80;42.70;;;;;;5042382;28;43719;-62
2022/01/13 02:58:38;;;;;;;2.63;2.42;;;21.80;42.70;;;;;;5043411;28;44094;-62
2022/01/13 03:01:05;;;;;;;2.40;2.20;;;21.80;42.70;;;;;;5042467;28;43463;-62
2022/01/13 03:03:35;;;;;;;2.42;2.22;;;21.80;42.70;;;;;;5042616;28;44667;-62
2022/01/13 03:06:10;;;;;;;2.72;2.53;;;21.70;42.70;;;;;;5040329;28;44087;-62
2022/01/13 03:08:41;;;;;;;2.80;2.60;;;21.70;42.70;;;;;;5042739;28;44034;-63
2022/01/13 03:11:09;;;;;;;2.97;2.65;;;21.70;42.70;;;;;;5043280;28;43468;-62
2022/01/13 03:13:36;;;;;;;2.42;2.22;;;21.70;42.80;;;;;;5046204;28;44732;-62
2022/01/13 03:16:07;;;;;;;2.90;2.70;;;21.70;42.80;;;;;;5045356;28;43443;-62
2022/01/13 03:18:36;;;;;;;;;;;21.70;42.80;;;;;;5045822;28;43434;-62
2022/01/13 03:21:05;;;;;;;2.55;2.35;;;21.70;42.80;;;;;;5045998;28;43504;-62
2022/01/13 03:23:34;;;;;;;2.65;2.45;;;21.60;42.80;;;;;;5045710;28;44661;-62
2022/01/13 03:26:03;;;;;;;2.83;2.63;;;21.70;42.90;;;;;;5038574;28;43459;-62
2022/01/13 03:28:37;;;;;;;2.50;2.30;;;21.60;42.80;;;;;;5046466;28;43411;-62
2022/01/13 03:31:06;;;;;;;2.80;2.60;;;21.60;42.90;;;;;;5045255;28;43400;-62
2022/01/13 03:33:35;;;;;;;2.75;2.55;;;21.60;42.90;;;;;;5044976;28;44674;-63
2022/01/13 03:36:02;;;;;;;2.88;2.67;;;21.60;42.80;;;;;;5045155;28;43462;-62
2022/01/13 03:38:30;;;;;;;3.13;2.83;;;21.60;42.90;;;;;;5045978;28;43555;-62
2022/01/13 03:40:58;;;;;;;2.70;2.50;;;21.60;42.90;;;;;;5045726;28;43485;-62
2022/01/13 03:43:25;;;;;;;2.60;2.40;;;21.50;42.90;;;;;;5045540;28;44678;-62
2022/01/13 03:45:53;;;;;;;2.90;2.70;;;21.50;42.90;;;;;;5044545;28;43586;-62
2022/01/13 03:48:20;;;;;;;2.72;2.53;;;21.50;42.90;;;;;;5046356;28;43443;-62
2022/01/13 03:50:48;;;;;;;2.83;2.63;;;21.50;42.90;;;;;;5045344;28;43487;-62
2022/01/13 03:53:28;;;;;;;2.80;2.60;;;21.50;42.90;;;;;;5045725;28;43939;-62
2022/01/13 03:56:37;;;;;;;2.60;2.40;;;21.50;42.90;;;;;;5044793;28;43995;-62
2022/01/13 03:59:33;;;;;;;2.72;2.53;;;21.50;43.00;;;;;;5009148;28;43544;-62
2022/01/13 04:02:16;;;;;;;3.00;2.80;;;21.50;43.00;;;;;;5045337;28;43546;-62
2022/01/13 04:04:46;;;;;;;2.90;2.70;;;21.40;42.90;;;;;;5043053;28;43564;-62
2022/01/13 04:07:20;;;;;;;2.73;2.53;;;21.40;42.90;;;;;;5044377;28;43721;-62
2022/01/13 04:09:47;;;;;;;2.88;2.67;;;21.40;43.00;;;;;;5045495;28;43439;-62
2022/01/13 04:12:18;;;;;;;2.60;2.40;;;21.40;43.00;;;;;;5045504;28;43574;-62
2022/01/13 04:15:01;;;;;;;2.90;2.70;;;21.40;43.10;;;;;;5045002;28;44989;-62
2022/01/13 04:17:29;;;;;;;3.10;2.80;;;21.40;43.00;;;;;;5060883;28;43766;-62
2022/01/13 04:19:56;;;;;;;2.90;2.70;;;21.30;43.00;;;;;;5044945;28;43479;-62
2022/01/13 04:22:25;;;;;;;2.78;2.55;;;21.30;43.00;;;;;;5044078;28;43557;-62
2022/01/13 04:24:53;;;;;;;2.67;2.47;;;21.30;43.00;;;;;;5044847;28;44176;-62
2022/01/13 04:27:24;;;;;;;3.13;2.90;;;21.30;43.00;;;;;;5045141;28;43612;-62
2022/01/13 04:30:23;;;;;;;2.83;2.63;;;21.40;43.00;;;;;;5045424;28;43460;-62
2022/01/13 04:32:39;;;;;;;3.38;3.08;;;21.30;42.90;;;;;;5044847;28;43438;-62
2022/01/13 04:35:10;;;;;;;2.88;2.67;;;21.30;43.00;;;;;;5045095;28;43905;-62
2022/01/13 04:37:38;;;;;;;2.95;2.70;;;21.30;43.00;;;;;;5044411;28;43724;-62
2022/01/13 04:40:09;;;;;;;3.33;3.03;;;21.30;43.00;;;;;;5045258;28;43438;-62
2022/01/13 04:42:41;;;;;;;2.73;2.53;;;21.30;43.10;;;;;;5044913;28;43459;-62
2022/01/13 04:45:09;;;;;;;2.70;2.50;;;21.20;43.10;;;;;;5044502;28;44018;-62
2022/01/13 04:47:36;;;;;;;2.65;2.45;;;21.20;43.10;;;;;;5044420;28;43408;-62
2022/01/13 04:50:05;;;;;;;3.35;3.05;;;21.20;43.10;;;;;;5045137;28;43482;-62
2022/01/13 04:52:32;;;;;;;3.05;2.75;;;21.20;43.10;;;;;;5044654;28;43512;-62
2022/01/13 04:55:08;;;;;;;2.60;2.50;;;21.20;43.10;;;;;;5044354;28;43977;-62
2022/01/13 04:57:36;;;;;;;3.13;2.90;;;21.20;43.10;;;;;;5044729;28;43420;-63
2022/01/13 05:00:06;;;;;;;3.20;2.90;;;21.20;43.10;;;;;;5044982;28;43511;-62
2022/01/13 05:02:35;;;;;;;3.10;2.90;;;21.20;43.10;;;;;;5043413;28;43578;-62
2022/01/13 05:05:05;;;;;;;3.20;2.92;;;21.20;43.10;;;;;;5044192;28;45000;-63
2022/01/13 05:07:33;;;;;;;3.08;2.88;;;21.10;43.10;;;;;;5044174;28;43660;-62
2022/01/13 05:10:02;;;;;;;3.20;2.90;;;21.10;43.10;;;;;;5042236;28;43431;-63
2022/01/13 05:12:36;;;;;;;3.17;2.90;;;21.10;43.10;;;;;;5044316;28;43443;-63
2022/01/13 05:15:06;;;;;;;3.28;2.97;;;21.10;43.20;;;;;;5044008;28;44749;-63
2022/01/13 05:20:24;;;;;;;3.38;3.00;;;21.10;43.10;;;;;;5037651;28;44016;-62
2022/01/13 05:22:52;;;;;;;3.42;3.13;;;21.10;43.20;;;;;;5042426;28;43488;-62
2022/01/13 05:25:21;;;;;;;3.20;2.90;;;21.00;43.10;;;;;;5044236;28;45068;-62
2022/01/13 05:27:48;;;;;;;3.10;2.80;;;21.00;43.60;;;;;;5044358;28;43470;-63
2022/01/13 05:30:17;;;;;;;3.72;3.42;;;21.00;43.20;;;;;;5045021;28;43445;-62
2022/01/13 05:32:46;;;;;;;3.65;3.35;;;21.00;43.20;;;;;;5043859;28;43497;-62
2022/01/13 05:35:15;;;;;;;3.38;3.08;;;21.00;43.20;;;;;;5044187;28;43811;-62
2022/01/13 05:37:44;;;;;;;3.83;3.47;;;21.00;43.30;;;;;;5043854;28;43689;-62
2022/01/13 05:40:13;;;;;;;2.95;2.72;;;21.00;43.20;;;;;;5060105;28;43495;-62
2022/01/13 05:42:40;;;;;;;4.10;3.70;;;21.00;43.20;;;;;;5043491;28;43442;-61
2022/01/13 05:45:15;;;;;;;3.50;3.20;;;20.90;43.20;;;;;;5043415;28;44100;-62
2022/01/13 05:47:48;;;;;;;3.72;3.42;;;20.90;43.30;;;;;;5043447;28;43415;-62
2022/01/13 05:50:18;;;;;;;3.40;3.10;;;20.90;43.40;;;;;;5044113;28;43507;-62
2022/01/13 05:52:47;;;;;;;4.43;3.40;;;20.90;43.30;;;;;;5043839;28;43458;-62
2022/01/13 05:55:15;;;;;;;3.65;3.35;;;20.90;43.40;;;;;;5041559;28;43977;-62
2022/01/13 05:57:44;;;;;;;4.05;3.50;;;20.90;43.40;;;;;;5043725;28;43510;-62
2022/01/13 06:00:14;;;;;;;3.85;3.45;;;20.80;43.40;;;;;;5044096;28;43570;-62
2022/01/13 06:02:42;;;;;;;3.90;3.60;;;20.90;43.50;;;;;;5043501;28;43423;-62
2022/01/13 06:05:11;;;;;;;3.80;3.50;;;20.80;43.50;;;;;;5043630;28;45100;-63
2022/01/13 06:07:39;;;;;;;3.90;3.42;;;20.80;43.50;;;;;;5043425;28;43463;-62
2022/01/13 06:10:10;;;;;;;3.63;3.20;;;20.80;43.50;;;;;;5075259;28;44013;-63
2022/01/13 06:12:38;;;;;;;3.97;3.45;;;20.80;43.50;;;;;;5043045;28;43467;-63
2022/01/13 06:15:10;;;;;;;4.68;3.67;;;20.80;43.50;;;;;;5043257;28;43803;-62
2022/01/13 06:17:40;;;;;;;3.97;3.60;;;20.80;43.50;;;;;;5043050;28;43407;-63
2022/01/13 06:20:10;;;;;;;4.10;3.50;;;20.80;43.50;;;;;;5043648;28;43452;-62
2022/01/13 06:22:39;;;;;;;4.72;3.40;;;20.80;43.50;;;;;;5043061;28;43454;-62
2022/01/13 06:25:07;;;;;;;3.90;3.30;;;20.70;43.50;;;;;;5043190;28;44169;-63
2022/01/13 06:27:36;;;;;;;3.47;3.17;;;20.70;43.50;;;;;;5042920;28;43500;-63
2022/01/13 06:30:10;;;;;;;3.70;3.40;;;20.70;43.60;;;;;;5043551;28;43425;-62
2022/01/13 06:32:38;;;;;;;4.00;3.40;;;20.70;43.60;;;;;;5041275;28;43412;-63
2022/01/13 06:35:06;;;;;;;3.83;3.45;;;20.70;43.60;;;;;;5043027;28;43821;-62
2022/01/13 06:37:33;;;;;;;5.13;3.92;;;20.70;43.70;;;;;;5042634;28;44109;-62
2022/01/13 06:40:02;;;;;;;4.80;4.25;;;20.70;43.60;;;;;;5043498;28;43476;-63
2022/01/13 06:42:30;;;;;;;4.00;3.60;;;20.70;43.60;;;;;;5042865;28;43441;-63
2022/01/13 06:44:57;;;;;;;4.25;3.85;;;20.70;43.70;;;;;;5042382;28;45061;-62
2022/01/13 06:47:25;;;;;;;4.53;3.58;;;20.70;43.60;;;;;;5040985;28;44044;-62
2022/01/13 06:49:52;;;;;;;4.13;3.63;;;20.70;43.60;;;;;;5043306;28;43391;-62
2022/01/13 06:52:20;;;;;;;5.22;4.07;;;20.70;43.60;;;;;;5042502;28;43443;-63
2022/01/13 06:54:48;;;;;;;5.40;4.18;;;20.70;43.50;;;;;;5042806;28;43817;-62
2022/01/13 06:57:16;;;;;;;4.32;3.75;;;20.70;43.70;;;;;;5042569;28;43692;-62
2022/01/13 06:59:43;;;;;;;5.35;4.05;;;20.70;43.70;;;;;;5041822;28;43991;-62
2022/01/13 07:02:12;;;;;;;4.70;3.72;;;20.60;43.70;;;;;;5042104;28;43673;-63
2022/01/13 07:04:41;;;;;;;5.00;3.85;;;20.60;43.70;;;;;;5042795;28;43822;-62
2022/01/13 07:07:08;;;;;;;4.05;3.60;;;20.60;43.70;;;;;;5042225;28;43427;-62
2022/01/13 07:09:36;;;;;;;4.50;3.63;;;20.60;43.70;;;;;;5042235;28;43531;-62
2022/01/13 07:12:04;;;;;;;5.05;3.72;;;20.60;43.70;;;;;;5042408;28;44056;-63
2022/01/13 07:14:31;;;;;;;4.43;3.80;;;20.60;43.70;;;;;;5041926;28;43800;-62
2022/01/13 07:16:59;;;;;;;4.22;3.55;;;20.70;43.70;;;;;;5041062;28;43383;-62
2022/01/13 07:19:26;;;;;;;5.45;3.58;;;20.70;43.70;;;;;;5042454;28;43647;-62
2022/01/13 07:21:54;;;;;;;5.68;3.85;;;20.70;43.70;;;;;;5042324;28;43503;-62
2022/01/13 07:24:21;;;;;;;4.60;3.50;;;20.70;43.80;;;;;;5042532;28;44701;-63
2022/01/13 07:26:48;;;;;;;5.20;3.60;;;20.70;43.70;;;;;;5074021;28;44051;-62
2022/01/13 07:29:16;;;;;;;4.93;3.45;;;20.60;43.70;;;;;;5042852;28;43471;-62
2022/01/13 07:31:47;;;;;;;5.10;3.92;;;20.70;43.70;;;;;;5042159;28;43521;-62
2022/01/13 07:34:15;;;;;;;4.10;3.70;;;20.70;43.70;;;;;;5039530;28;43569;-63
2022/01/13 07:36:43;;;;;;;4.60;3.58;;;20.70;43.70;;;;;;5041871;28;43513;-62
2022/01/13 07:39:11;;;;;;;4.68;3.42;;;20.70;43.70;;;;;;5041541;28;43502;-62
2022/01/13 07:41:38;;;;;;;4.95;3.70;;;20.70;43.70;;;;;;5042525;28;43593;-62
2022/01/13 07:44:06;;;;;;;3.83;3.25;;;20.70;43.70;;;;;;5042280;28;43808;-62
2022/01/13 07:46:34;;;;;;;5.80;3.55;;;20.70;43.70;;;;;;5041933;28;43957;-62
2022/01/13 07:49:02;;;;;;;3.67;3.20;;;20.70;43.70;;;;;;5042487;28;43351;-62
2022/01/13 07:51:30;;;;;;;4.32;3.00;;;20.70;43.70;;;;;;5042024;28;43499;-62
2022/01/13 07:53:59;;;;;;;5.97;3.85;;;20.70;43.70;;;;;;5042186;28;43794;-63
2022/01/13 07:56:28;;;;;;;5.13;3.50;;;20.70;43.80;;;;;;5042058;28;43482;-63
2022/01/13 07:58:56;;;;;;;3.55;2.97;;;20.70;43.70;;;;;;5045898;28;43472;-62
2022/01/13 08:01:24;;;;;;;5.53;3.33;;;20.70;43.70;;;;;;5037018;28;43437;-62
2022/01/13 08:03:52;;;;;;;5.85;3.63;;;20.70;43.70;;;;;;5045870;28;44697;-62
2022/01/13 08:06:19;;;;;;;5.55;2.90;;;20.70;43.70;;;;;;5043999;28;43999;-63
2022/01/13 08:08:47;;;;;;;5.20;2.97;;;20.70;43.70;;;;;;5045244;28;43539;-62
2022/01/13 08:11:16;;;;;;;5.35;3.50;;;20.70;43.70;;;;;;5042444;28;43476;-62
2022/01/13 08:13:44;;;;;;;4.60;3.30;;;20.70;43.70;;;;;;5045314;28;44699;-61
2022/01/13 08:16:12;;;;;;;5.93;3.35;;;20.70;43.70;;;;;;5044474;28;43987;-62
2022/01/13 08:21:25;;;;;;;6.07;3.53;;;20.70;43.80;;;;;;5045163;28;43432;-63
2022/01/13 08:23:52;;;;;;;5.38;3.30;;;20.80;43.80;;;;;;5045449;28;43563;-63
2022/01/13 08:26:21;;;;;;;5.30;3.20;;;20.70;43.80;;;;;;5043351;28;43457;-63
2022/01/13 08:28:48;;;;;;;5.32;3.33;;;20.80;43.80;;;;;;5044226;28;43556;-63
2022/01/13 08:31:15;;;;;;;6.03;3.33;;;20.70;43.80;;;;;;5045004;28;43459;-63
2022/01/13 08:33:43;;;;;;;7.38;3.50;;;20.70;43.80;;;;;;5045322;28;43768;-63
2022/01/13 08:36:10;;;;;;;5.63;3.40;;;20.70;43.80;;;;;;5044419;28;43494;-64
2022/01/13 08:38:38;;;;;;;6.15;3.63;;;20.70;43.90;;;;;;5045274;28;43479;-63
2022/01/13 08:41:05;;;;;;;6.05;3.53;;;20.70;43.80;;;;;;5060844;28;43465;-63
2022/01/13 08:43:34;;;;;;;6.20;3.72;;;20.70;43.90;;;;;;5044394;28;43808;-63
2022/01/13 08:46:03;;;;;;;4.70;3.35;;;20.70;43.90;;;;;;5038392;28;43486;-63
2022/01/13 08:48:35;;;;;;;5.03;3.33;;;20.70;44.00;;;;;;5045188;28;43556;-63
2022/01/13 08:51:03;;;;;;;;;;;20.70;44.00;;;;;;5046180;28;43579;-63
2022/01/13 08:53:31;;;;;;;5.43;3.40;;;20.70;44.10;;;;;;5043433;28;44631;-64
2022/01/13 08:56:00;;;;;;;5.57;3.47;;;20.70;44.10;;;;;;5044027;28;43479;-63
2022/01/13 08:58:27;;;;;;;6.03;3.65;;;20.70;44.00;;;;;;5044258;28;43529;-63
2022/01/13 09:00:56;;;;;;;5.50;3.53;;;20.80;44.10;;;;;;5044357;28;43463;-63
2022/01/13 09:03:24;;;;;;;7.65;3.55;;;20.70;44.00;;;;;;5044185;28;45122;-63
2022/01/13 09:05:51;;;;;;;5.40;3.40;;;20.70;44.00;;;;;;5041920;28;43431;-63
2022/01/13 09:08:19;;;;;;;6.55;3.90;;;20.80;44.10;;;;;;5043247;28;43524;-64
2022/01/13 09:10:46;;;;;;;7.15;3.72;;;20.80;44.10;;;;;;5036646;28;43586;-63
2022/01/13 09:13:15;;;;;;;6.40;3.30;;;20.80;44.10;;;;;;5044071;28;44054;-63
2022/01/13 09:15:49;;;;;;;7.50;3.95;;;20.80;44.10;;;;;;5043908;28;44036;-63
2022/01/13 09:18:31;;;;;;;5.68;3.67;;;20.80;44.10;;;;;;5044635;28;43398;-63
2022/01/13 09:21:03;;;;;;;7.55;3.90;;;20.80;44.10;;;;;;5039650;28;43459;-63
2022/01/13 09:23:35;;;;;;;4.75;3.30;;;20.80;44.10;;;;;;5043855;28;44681;-62
2022/01/13 09:26:04;;;;;;;5.70;3.40;;;20.80;44.10;;;;;;5043721;28;43844;-63
2022/01/13 09:28:34;;;;;;;6.60;3.80;;;20.80;44.10;;;;;;5044179;28;43486;-63
2022/01/13 09:31:01;;;;;;;6.13;3.45;;;20.90;44.20;;;;;;5039462;28;44034;-62
2022/01/13 09:33:29;;;;;;;5.90;3.95;;;20.80;44.10;;;;;;5043774;28;44045;-62
2022/01/13 09:35:57;;;;;;;6.00;3.60;;;20.90;44.20;;;;;;5059564;28;43505;-63
2022/01/13 09:38:24;;;;;;;6.93;3.63;;;20.90;44.10;;;;;;5043925;28;43376;-62
2022/01/13 09:40:53;;;;;;;6.10;3.78;;;20.90;44.10;;;;;;5043927;28;43441;-63
2022/01/13 09:43:22;;;;;;;6.10;3.53;;;20.90;44.10;;;;;;5048406;28;43786;-63
2022/01/13 09:45:51;;;;;;;4.95;3.40;;;20.90;44.10;;;;;;5043317;28;44082;-62
2022/01/13 09:48:19;;;;;;;4.65;3.40;;;20.90;44.10;;;;;;5042836;28;43475;-62
2022/01/13 09:50:49;;;;;;;3.92;3.25;;;20.90;44.10;;;;;;5036560;28;43881;-62
2022/01/13 09:53:17;;;;;;;6.07;3.23;;;21.00;44.10;;;;;;5047893;28;44982;-63
2022/01/13 09:55:45;;;;;;;5.68;3.45;;;21.00;44.10;;;;;;5049536;28;43741;-62
2022/01/13 09:58:15;;;;;;;5.17;3.43;;;21.00;44.10;;;;;;5047111;28;43432;-62
2022/01/13 10:00:44;;;;;;;5.13;3.38;;;21.10;44.10;;;;;;5048582;28;44075;-63
2022/01/13 10:03:26;;;;;;;6.35;3.28;;;21.10;44.00;;;;;;5046863;28;44040;-63
2022/01/13 10:06:00;;;;;;;5.75;3.65;;;21.10;44.00;;;;;;5047698;28;43703;-63
2022/01/13 10:08:51;;;;;;;6.22;3.70;;;21.20;44.00;;;;;;5086628;27;43466;-62
2022/01/13 10:11:36;;;;;;;5.38;3.20;;;21.20;44.00;;;;;;5048219;28;43380;-63
2022/01/13 10:17:08;;;;;;;4.88;3.35;;;21.30;44.00;;;;;;5029279;28;44357;-63
2022/01/13 10:19:47;;;;;;;6.03;3.40;;;21.30;44.00;;;;;;5045003;28;43455;-63
2022/01/13 10:22:21;;;;;;;5.90;3.97;;;21.30;43.90;;;;;;5042928;28;43547;-61
2022/01/13 10:24:55;;;;;;;5.95;3.20;;;21.30;43.90;;;;;;5039502;28;44995;-65
2022/01/13 10:27:31;;;;;;;6.13;3.60;;;21.30;44.00;;;;;;5076242;27;44668;-64
2022/01/13 10:30:02;;;;;;;7.03;3.60;;;21.30;43.80;;;;;;5076409;27;43646;-64
2022/01/13 10:32:37;;;;;;;6.40;3.83;;;21.30;43.80;;;;;;5079173;27;43424;-65
2022/01/13 10:35:15;;;;;;;5.80;3.60;;;21.40;43.90;;;;;;5078967;27;44208;-65
2022/01/13 10:37:44;;;;;;;4.68;3.03;;;21.40;43.90;;;;;;5044546;28;45141;-64
2022/01/13 10:40:17;;;;;;;6.07;3.35;;;21.40;43.90;;;;;;5046483;28;43484;-65
2022/01/13 10:45:33;;;;;;;5.07;3.30;;;21.40;43.80;;;;;;5045553;28;44152;-65
2022/01/13 10:48:06;;;;;;;5.47;3.50;;;21.50;43.90;;;;;;5042654;28;44380;-65
2022/01/13 10:50:38;;;;;;;4.18;3.13;;;21.50;43.90;;;;;;5040339;28;43970;-64
2022/01/13 10:53:09;;;;;;;4.38;3.20;;;21.50;43.90;;;;;;5046403;28;43474;-64
2022/01/13 10:55:43;;;;;;;4.88;3.17;;;21.50;44.00;;;;;;5045094;28;44929;-64
2022/01/13 10:58:14;;;;;;;5.97;3.20;;;21.50;43.90;;;;;;5075007;27;43431;-64
2022/01/13 11:00:45;;;;;;;6.50;4.10;;;21.50;43.90;;;;;;5076244;27;43514;-65
2022/01/13 11:03:22;;;;;;;5.07;3.33;;;21.60;44.00;;;;;;5076420;27;43613;-64
2022/01/13 11:05:55;;;;;;;5.65;3.67;;;21.60;43.90;;;;;;5076106;27;43948;-64
2022/01/13 11:08:42;;;;;;;5.15;3.45;;;21.60;43.90;;;;;;5060907;28;43479;-63
2022/01/13 11:11:26;;;;;;;5.05;3.20;;;21.60;44.00;;;;;;5044022;28;43477;-64
2022/01/13 11:13:59;;;;;;;4.40;3.33;;;21.60;44.00;;;;;;5043959;28;43674;-63
2022/01/13 11:16:29;;;;;;;5.47;3.40;;;21.60;44.00;;;;;;5054551;28;44123;-64
2022/01/13 11:18:58;;;;;;;4.57;2.97;;;21.60;44.00;;;;;;5041241;28;45794;-64
2022/01/13 11:21:27;;;;;;;5.70;3.30;;;21.70;44.00;;;;;;5044093;28;43423;-63
2022/01/13 11:23:58;;;;;;;5.95;3.25;;;21.70;44.00;;;;;;5044802;28;44153;-63
2022/01/13 11:26:27;;;;;;;;;;;21.70;44.00;;;;;;5043281;28;44219;-63
2022/01/13 11:29:00;;;;;;;5.18;3.13;;;21.70;44.00;;;;;;5049267;28;43486;-63
2022/01/13 11:31:33;;;;;;;4.93;3.25;;;21.70;44.00;;;;;;5052582;28;43478;-63
2022/01/13 11:34:01;;;;;;;6.63;3.42;;;21.70;44.00;;;;;;5054251;28;43577;-63
2022/01/13 11:36:30;;;;;;;4.10;3.20;;;21.70;44.00;;;;;;5051471;28;43581;-64
2022/01/13 11:39:05;;;;;;;3.83;2.67;;;21.70;44.00;;;;;;5051833;28;43433;-65
2022/01/13 11:42:05;;;;;;;4.63;3.30;;;21.70;44.00;;;;;;5047035;28;43486;-64
2022/01/13 11:44:36;;;;;;;6.30;3.50;;;21.80;44.00;;;;;;5047448;28;43662;-64
2022/01/13 11:47:29;;;;;;;4.20;2.95;;;21.80;44.00;;;;;;5044263;28;43625;-64
2022/01/13 11:50:41;;;;;;;4.07;3.15;;;21.80;44.00;;;;;;5046157;28;43479;-63
2022/01/13 11:53:33;;;;;;;6.25;3.35;;;21.80;43.90;;;;;;5049014;28;43438;-64
2022/01/13 11:56:08;;;;;;;3.95;2.85;;;21.90;44.00;;;;;;5056392;28;43889;-63
2022/01/13 11:58:50;;;;;;;4.30;3.28;;;21.90;44.00;;;;;;5051967;28;43904;-64
2022/01/13 12:01:25;;;;;;;4.50;3.00;;;21.90;43.90;;;;;;5056128;28;43454;-64
2022/01/13 12:04:05;;;;;;;5.28;3.90;;;21.90;43.80;;;;;;5045141;28;43564;-63
2022/01/13 12:06:45;;;;;;;5.63;3.60;;;21.90;43.70;;;;;;5052440;28;43585;-64
2022/01/13 12:09:21;;;;;;;5.05;3.45;;;21.90;43.70;;;;;;5048451;28;44028;-64
2022/01/13 12:11:56;;;;;;;5.72;3.15;;;22.00;43.80;;;;;;5048857;28;44011;-63
2022/01/13 12:14:25;;;;;;;4.72;3.28;;;22.00;43.80;;;;;;5044564;28;43430;-64
2022/01/13 12:17:12;;;;;;;4.65;2.88;;;22.00;43.80;;;;;;5044386;28;43416;-63
2022/01/13 12:19:47;;;;;;;5.80;3.33;;;22.00;43.70;;;;;;5045978;28;44058;-64
2022/01/13 12:22:26;;;;;;;5.15;3.20;;;22.00;43.70;;;;;;5050242;28;43490;-63
2022/01/13 12:25:00;;;;;;;4.82;3.40;;;22.00;43.70;;;;;;5051636;28;43541;-63
2022/01/13 12:27:34;;;;;;;5.05;3.30;;;22.00;43.70;;;;;;5054743;28;43483;-63
2022/01/13 12:30:10;;;;;;;6.28;3.13;;;22.00;43.80;;;;;;5052159;28;43718;-63
2022/01/13 12:32:49;;;;;;;3.70;3.00;;;22.00;43.80;;;;;;5054089;28;43505;-63
2022/01/13 12:35:47;;;;;;;4.55;3.33;;;22.00;43.70;;;;;;5049489;28;43465;-63
2022/01/13 12:38:21;;;;;;;3.97;3.10;;;22.10;43.80;;;;;;5045574;28;44228;-63
2022/01/13 12:41:02;;;;;;;4.13;3.00;;;22.10;43.70;;;;;;5039849;28;43926;-63
2022/01/13 12:43:47;;;;;;;4.68;2.97;;;22.10;43.80;;;;;;5041745;28;43462;-65
2022/01/13 12:46:24;;;;;;;3.58;2.83;;;22.10;43.70;;;;;;5043828;28;43449;-63
2022/01/13 12:48:55;;;;;;;5.15;2.92;;;22.10;43.80;;;;;;5050148;28;44059;-64
2022/01/13 12:51:27;;;;;;;6.03;3.50;;;22.20;43.60;;;;;;5052310;28;43842;-64
2022/01/13 12:53:55;;;;;;;4.50;2.97;;;22.20;43.70;;;;;;5050601;28;43455;-63
2022/01/13 12:56:28;;;;;;;3.25;2.85;;;22.20;43.60;;;;;;5056377;28;43474;-64
2022/01/13 12:59:06;;;;;;;3.75;2.63;;;22.20;43.60;;;;;;5054148;28;43570;-63
2022/01/13 13:01:38;;;;;;;5.20;3.10;;;22.30;43.60;;;;;;5069842;28;43815;-63
2022/01/13 13:04:11;;;;;;;5.25;3.05;;;22.30;43.50;;;;;;5049751;28;43606;-64
2022/01/13 13:06:47;;;;;;;5.43;3.00;;;22.30;43.50;;;;;;5047152;28;43447;-63
2022/01/13 13:09:22;;;;;;;4.47;3.00;;;22.30;43.50;;;;;;5043929;28;43480;-63
2022/01/13 13:11:55;;;;;;;3.88;2.70;;;22.30;43.40;;;;;;5060165;28;45133;-64
2022/01/13 13:17:28;;;;;;;4.32;2.85;;;22.40;43.50;;;;;;5042139;28;43523;-64
2022/01/13 13:19:56;;;;;;;4.18;2.90;;;22.40;43.50;;;;;;5046079;28;43512;-64
2022/01/13 13:22:24;;;;;;;5.70;3.17;;;22.40;43.50;;;;;;5044333;28;43573;-64
2022/01/13 13:24:54;;;;;;;5.50;3.28;;;22.40;43.40;;;;;;5045941;28;43518;-63
2022/01/13 13:27:30;;;;;;;4.77;2.80;;;22.40;43.40;;;;;;5039601;28;43577;-64
2022/01/13 13:29:58;;;;;;;5.03;2.95;;;22.40;43.30;;;;;;5042551;28;43539;-64
2022/01/13 13:32:25;;;;;;;4.70;3.13;;;22.40;43.40;;;;;;5042953;28;44943;-63